sensor_id;sensor_type;location;lat;lon;timestamp;P1;durP1;ratioP1;P2;durP2;ratioP2
7306;SDS011;3694;48.732;9.248;2023-02-15T00:01:35;71.43;;;40.87;;
7306;SDS011;3694;48.732;9.248;2023-02-15T00:04:01;68.67;;;39.83;;
7306;SDS011;3694;48.732;9.248;2023-02-15T00:06:28;73.83;;;40.40;;
7306;SDS011;3694;48.732;9.248;2023-02-15T00:08:54;77.33;;;40.40;;
7306;SDS011;3694;48.732;9.248;2023-02-15T00:11:21;75.40;;;39.10;;
7306;SDS011;3694;48.732;9.248;2023-02-15T00:14:05;70.40;;;40.27;;
7306;SDS011;3694;48.732;9.248;2023-02-15T00:16:32;76.53;;;39.97;;
7306;SDS011;3694;48.732;9.248;2023-02-15T00:18:58;70.67;;;38.17;;
7306;SDS011;3694;48.732;9.248;2023-02-15T00:21:27;67.53;;;38.83;;
7306;SDS011;3694;48.732;9.248;2023-02-15T00:23:54;75.93;;;39.77;;
7306;SDS011;3694;48.732;9.248;2023-02-15T00:26:20;75.30;;;39.33;;
7306;SDS011;3694;48.732;9.248;2023-02-15T00:28:46;78.77;;;43.13;;
7306;SDS011;3694;48.732;9.248;2023-02-15T00:31:12;85.10;;;44.20;;
7306;SDS011;3694;48.732;9.248;2023-02-15T00:33:38;97.53;;;50.83;;
7306;SDS011;3694;48.732;9.248;2023-02-15T00:36:04;102.17;;;54.43;;
7306;SDS011;3694;48.732;9.248;2023-02-15T00:38:32;92.23;;;51.37;;
7306;SDS011;3694;48.732;9.248;2023-02-15T00:40:58;93.33;;;48.27;;
7306;SDS011;3694;48.732;9.248;2023-02-15T00:43:26;91.43;;;46.17;;
7306;SDS011;3694;48.732;9.248;2023-02-15T00:45:52;85.07;;;45.17;;
7306;SDS011;3694;48.732;9.248;2023-02-15T00:48:18;85.00;;;43.97;;
7306;SDS011;3694;48.732;9.248;2023-02-15T00:50:45;83.30;;;44.47;;
7306;SDS011;3694;48.732;9.248;2023-02-15T00:53:12;86.47;;;42.80;;
7306;SDS011;3694;48.732;9.248;2023-02-15T00:55:37;88.83;;;41.73;;
7306;SDS011;3694;48.732;9.248;2023-02-15T00:58:05;80.53;;;42.13;;
7306;SDS011;3694;48.732;9.248;2023-02-15T01:00:34;84.27;;;41.10;;
7306;SDS011;3694;48.732;9.248;2023-02-15T01:03:00;85.23;;;41.70;;
7306;SDS011;3694;48.732;9.248;2023-02-15T01:05:26;86.40;;;43.83;;
7306;SDS011;3694;48.732;9.248;2023-02-15T01:07:51;91.40;;;45.13;;
7306;SDS011;3694;48.732;9.248;2023-02-15T01:10:17;84.30;;;43.33;;
7306;SDS011;3694;48.732;9.248;2023-02-15T01:12:42;89.37;;;44.13;;
7306;SDS011;3694;48.732;9.248;2023-02-15T01:15:08;88.40;;;44.10;;
7306;SDS011;3694;48.732;9.248;2023-02-15T01:17:34;83.67;;;43.80;;
7306;SDS011;3694;48.732;9.248;2023-02-15T01:19:59;89.30;;;45.83;;
7306;SDS011;3694;48.732;9.248;2023-02-15T01:22:25;86.93;;;45.17;;
7306;SDS011;3694;48.732;9.248;2023-02-15T01:24:51;86.03;;;46.40;;
7306;SDS011;3694;48.732;9.248;2023-02-15T01:27:17;94.17;;;47.40;;
7306;SDS011;3694;48.732;9.248;2023-02-15T01:29:42;95.50;;;49.40;;
7306;SDS011;3694;48.732;9.248;2023-02-15T01:32:08;108.20;;;52.57;;
7306;SDS011;3694;48.732;9.248;2023-02-15T01:34:34;108.63;;;55.60;;
7306;SDS011;3694;48.732;9.248;2023-02-15T01:36:59;118.83;;;60.23;;
7306;SDS011;3694;48.732;9.248;2023-02-15T01:39:25;108.47;;;57.23;;
7306;SDS011;3694;48.732;9.248;2023-02-15T01:41:51;107.87;;;55.30;;
7306;SDS011;3694;48.732;9.248;2023-02-15T01:44:40;104.13;;;52.50;;
7306;SDS011;3694;48.732;9.248;2023-02-15T01:47:14;104.73;;;50.90;;
7306;SDS011;3694;48.732;9.248;2023-02-15T01:49:45;101.17;;;49.63;;
7306;SDS011;3694;48.732;9.248;2023-02-15T01:52:12;100.47;;;49.07;;
7306;SDS011;3694;48.732;9.248;2023-02-15T01:54:40;98.23;;;48.13;;
7306;SDS011;3694;48.732;9.248;2023-02-15T01:57:20;95.30;;;46.70;;
7306;SDS011;3694;48.732;9.248;2023-02-15T01:59:49;94.37;;;46.27;;
7306;SDS011;3694;48.732;9.248;2023-02-15T02:02:19;94.13;;;47.63;;
7306;SDS011;3694;48.732;9.248;2023-02-15T02:04:53;96.43;;;47.63;;
7306;SDS011;3694;48.732;9.248;2023-02-15T02:07:24;93.77;;;48.03;;
7306;SDS011;3694;48.732;9.248;2023-02-15T02:09:53;102.97;;;48.40;;
7306;SDS011;3694;48.732;9.248;2023-02-15T02:12:19;92.80;;;47.23;;
7306;SDS011;3694;48.732;9.248;2023-02-15T02:14:47;94.50;;;47.17;;
7306;SDS011;3694;48.732;9.248;2023-02-15T02:17:30;96.33;;;46.30;;
7306;SDS011;3694;48.732;9.248;2023-02-15T02:34:25;104.37;;;49.20;;
7306;SDS011;3694;48.732;9.248;2023-02-15T02:36:58;100.50;;;47.63;;
7306;SDS011;3694;48.732;9.248;2023-02-15T02:39:49;102.37;;;48.30;;
7306;SDS011;3694;48.732;9.248;2023-02-15T02:45:12;90.70;;;45.70;;
7306;SDS011;3694;48.732;9.248;2023-02-15T02:47:46;95.50;;;47.23;;
7306;SDS011;3694;48.732;9.248;2023-02-15T02:50:20;101.13;;;45.93;;
7306;SDS011;3694;48.732;9.248;2023-02-15T02:52:49;97.10;;;47.97;;
7306;SDS011;3694;48.732;9.248;2023-02-15T02:57:54;103.67;;;49.30;;
7306;SDS011;3694;48.732;9.248;2023-02-15T03:00:37;103.13;;;49.63;;
7306;SDS011;3694;48.732;9.248;2023-02-15T03:03:33;98.93;;;48.40;;
7306;SDS011;3694;48.732;9.248;2023-02-15T03:06:16;92.57;;;47.83;;
7306;SDS011;3694;48.732;9.248;2023-02-15T03:08:47;102.67;;;47.73;;
7306;SDS011;3694;48.732;9.248;2023-02-15T03:11:16;96.70;;;48.40;;
7306;SDS011;3694;48.732;9.248;2023-02-15T03:13:42;92.27;;;46.17;;
7306;SDS011;3694;48.732;9.248;2023-02-15T03:16:10;110.63;;;50.07;;
7306;SDS011;3694;48.732;9.248;2023-02-15T03:24:23;97.27;;;45.80;;
7306;SDS011;3694;48.732;9.248;2023-02-15T03:26:53;88.53;;;45.73;;
7306;SDS011;3694;48.732;9.248;2023-02-15T03:29:22;85.60;;;44.60;;
7306;SDS011;3694;48.732;9.248;2023-02-15T03:31:53;92.00;;;46.10;;
7306;SDS011;3694;48.732;9.248;2023-02-15T03:34:21;87.57;;;45.97;;
7306;SDS011;3694;48.732;9.248;2023-02-15T03:36:50;93.20;;;47.57;;
7306;SDS011;3694;48.732;9.248;2023-02-15T03:40:02;86.63;;;46.37;;
7306;SDS011;3694;48.732;9.248;2023-02-15T03:42:53;88.27;;;44.50;;
7306;SDS011;3694;48.732;9.248;2023-02-15T03:45:51;89.30;;;45.17;;
7306;SDS011;3694;48.732;9.248;2023-02-15T03:48:24;89.23;;;46.17;;
7306;SDS011;3694;48.732;9.248;2023-02-15T03:50:54;85.53;;;45.73;;
7306;SDS011;3694;48.732;9.248;2023-02-15T03:53:42;83.77;;;45.73;;
7306;SDS011;3694;48.732;9.248;2023-02-15T03:56:10;85.30;;;43.87;;
7306;SDS011;3694;48.732;9.248;2023-02-15T03:58:35;78.57;;;43.47;;
7306;SDS011;3694;48.732;9.248;2023-02-15T04:01:25;79.03;;;43.27;;
7306;SDS011;3694;48.732;9.248;2023-02-15T04:04:23;78.97;;;42.43;;
7306;SDS011;3694;48.732;9.248;2023-02-15T04:06:55;80.97;;;42.50;;
7306;SDS011;3694;48.732;9.248;2023-02-15T04:09:21;79.80;;;42.87;;
7306;SDS011;3694;48.732;9.248;2023-02-15T04:12:05;84.03;;;44.47;;
7306;SDS011;3694;48.732;9.248;2023-02-15T04:14:31;76.17;;;43.50;;
7306;SDS011;3694;48.732;9.248;2023-02-15T04:17:15;79.23;;;44.97;;
7306;SDS011;3694;48.732;9.248;2023-02-15T04:19:41;74.53;;;42.40;;
7306;SDS011;3694;48.732;9.248;2023-02-15T04:22:25;74.83;;;42.73;;
7306;SDS011;3694;48.732;9.248;2023-02-15T04:25:09;73.07;;;41.90;;
7306;SDS011;3694;48.732;9.248;2023-02-15T04:27:38;76.63;;;41.90;;
7306;SDS011;3694;48.732;9.248;2023-02-15T04:30:06;75.50;;;42.73;;
7306;SDS011;3694;48.732;9.248;2023-02-15T04:32:34;72.83;;;41.73;;
7306;SDS011;3694;48.732;9.248;2023-02-15T04:35:00;78.97;;;41.10;;
7306;SDS011;3694;48.732;9.248;2023-02-15T04:37:25;72.27;;;40.60;;
7306;SDS011;3694;48.732;9.248;2023-02-15T04:39:51;73.17;;;41.37;;
7306;SDS011;3694;48.732;9.248;2023-02-15T04:42:17;71.03;;;39.90;;
7306;SDS011;3694;48.732;9.248;2023-02-15T04:44:42;74.93;;;40.27;;
7306;SDS011;3694;48.732;9.248;2023-02-15T04:47:08;71.50;;;39.37;;
7306;SDS011;3694;48.732;9.248;2023-02-15T04:49:34;70.70;;;38.50;;
7306;SDS011;3694;48.732;9.248;2023-02-15T04:51:59;67.63;;;38.77;;
7306;SDS011;3694;48.732;9.248;2023-02-15T04:54:25;66.77;;;40.07;;
7306;SDS011;3694;48.732;9.248;2023-02-15T04:56:51;69.40;;;38.60;;
7306;SDS011;3694;48.732;9.248;2023-02-15T04:59:16;71.50;;;39.93;;
7306;SDS011;3694;48.732;9.248;2023-02-15T05:01:42;69.63;;;39.57;;
7306;SDS011;3694;48.732;9.248;2023-02-15T05:04:07;69.00;;;40.87;;
7306;SDS011;3694;48.732;9.248;2023-02-15T05:06:34;70.97;;;40.07;;
7306;SDS011;3694;48.732;9.248;2023-02-15T05:08:59;72.50;;;41.17;;
7306;SDS011;3694;48.732;9.248;2023-02-15T05:11:25;71.60;;;39.83;;
7306;SDS011;3694;48.732;9.248;2023-02-15T05:13:51;77.50;;;41.77;;
7306;SDS011;3694;48.732;9.248;2023-02-15T05:16:17;71.40;;;41.63;;
7306;SDS011;3694;48.732;9.248;2023-02-15T05:18:42;72.63;;;41.97;;
7306;SDS011;3694;48.732;9.248;2023-02-15T05:21:08;79.73;;;43.30;;
7306;SDS011;3694;48.732;9.248;2023-02-15T05:23:34;84.03;;;43.87;;
7306;SDS011;3694;48.732;9.248;2023-02-15T05:26:00;81.27;;;45.67;;
7306;SDS011;3694;48.732;9.248;2023-02-15T05:28:44;83.17;;;45.07;;
7306;SDS011;3694;48.732;9.248;2023-02-15T05:31:13;73.07;;;42.17;;
7306;SDS011;3694;48.732;9.248;2023-02-15T05:33:41;66.93;;;39.93;;
7306;SDS011;3694;48.732;9.248;2023-02-15T05:36:07;68.13;;;39.00;;
7306;SDS011;3694;48.732;9.248;2023-02-15T05:38:33;68.23;;;37.83;;
7306;SDS011;3694;48.732;9.248;2023-02-15T05:41:01;63.73;;;37.43;;
7306;SDS011;3694;48.732;9.248;2023-02-15T05:43:27;67.13;;;38.20;;
7306;SDS011;3694;48.732;9.248;2023-02-15T05:45:53;71.10;;;38.53;;
7306;SDS011;3694;48.732;9.248;2023-02-15T05:48:20;61.57;;;36.73;;
7306;SDS011;3694;48.732;9.248;2023-02-15T05:51:05;62.50;;;38.17;;
7306;SDS011;3694;48.732;9.248;2023-02-15T05:53:34;58.50;;;36.83;;
7306;SDS011;3694;48.732;9.248;2023-02-15T05:56:02;60.83;;;36.90;;
7306;SDS011;3694;48.732;9.248;2023-02-15T05:58:29;61.13;;;37.00;;
7306;SDS011;3694;48.732;9.248;2023-02-15T06:01:11;64.67;;;38.60;;
7306;SDS011;3694;48.732;9.248;2023-02-15T06:03:39;57.83;;;35.73;;
7306;SDS011;3694;48.732;9.248;2023-02-15T06:06:05;62.50;;;36.57;;
7306;SDS011;3694;48.732;9.248;2023-02-15T06:08:32;61.30;;;36.10;;
7306;SDS011;3694;48.732;9.248;2023-02-15T06:10:58;67.73;;;39.00;;
7306;SDS011;3694;48.732;9.248;2023-02-15T06:13:24;63.57;;;38.60;;
7306;SDS011;3694;48.732;9.248;2023-02-15T06:15:50;71.97;;;40.40;;
7306;SDS011;3694;48.732;9.248;2023-02-15T06:18:15;71.63;;;42.67;;
7306;SDS011;3694;48.732;9.248;2023-02-15T06:20:41;76.27;;;44.00;;
7306;SDS011;3694;48.732;9.248;2023-02-15T06:23:06;78.83;;;45.23;;
7306;SDS011;3694;48.732;9.248;2023-02-15T06:25:32;82.50;;;47.47;;
7306;SDS011;3694;48.732;9.248;2023-02-15T06:27:58;82.30;;;45.13;;
7306;SDS011;3694;48.732;9.248;2023-02-15T06:30:23;64.17;;;41.23;;
7306;SDS011;3694;48.732;9.248;2023-02-15T06:32:49;65.37;;;40.50;;
7306;SDS011;3694;48.732;9.248;2023-02-15T06:35:14;67.73;;;40.47;;
7306;SDS011;3694;48.732;9.248;2023-02-15T06:37:40;63.23;;;38.80;;
7306;SDS011;3694;48.732;9.248;2023-02-15T06:40:06;63.97;;;38.27;;
7306;SDS011;3694;48.732;9.248;2023-02-15T06:42:32;64.23;;;37.60;;
7306;SDS011;3694;48.732;9.248;2023-02-15T06:44:58;62.93;;;38.63;;
7306;SDS011;3694;48.732;9.248;2023-02-15T06:47:25;62.43;;;39.47;;
7306;SDS011;3694;48.732;9.248;2023-02-15T06:49:50;64.40;;;38.17;;
7306;SDS011;3694;48.732;9.248;2023-02-15T06:52:16;67.40;;;39.30;;
7306;SDS011;3694;48.732;9.248;2023-02-15T06:54:41;64.27;;;40.03;;
7306;SDS011;3694;48.732;9.248;2023-02-15T06:57:07;64.97;;;39.70;;
7306;SDS011;3694;48.732;9.248;2023-02-15T06:59:34;63.90;;;38.90;;
7306;SDS011;3694;48.732;9.248;2023-02-15T07:02:00;64.83;;;40.03;;
7306;SDS011;3694;48.732;9.248;2023-02-15T07:04:25;68.10;;;40.27;;
7306;SDS011;3694;48.732;9.248;2023-02-15T07:06:53;70.93;;;39.57;;
7306;SDS011;3694;48.732;9.248;2023-02-15T07:09:19;64.23;;;39.87;;
7306;SDS011;3694;48.732;9.248;2023-02-15T07:11:44;68.03;;;40.07;;
7306;SDS011;3694;48.732;9.248;2023-02-15T07:14:28;65.90;;;40.03;;
7306;SDS011;3694;48.732;9.248;2023-02-15T07:16:54;63.13;;;39.37;;
7306;SDS011;3694;48.732;9.248;2023-02-15T07:19:19;70.93;;;41.37;;
7306;SDS011;3694;48.732;9.248;2023-02-15T07:21:45;69.17;;;41.27;;
7306;SDS011;3694;48.732;9.248;2023-02-15T07:24:10;68.23;;;42.00;;
7306;SDS011;3694;48.732;9.248;2023-02-15T07:26:36;69.97;;;42.90;;
7306;SDS011;3694;48.732;9.248;2023-02-15T07:29:01;72.03;;;42.90;;
7306;SDS011;3694;48.732;9.248;2023-02-15T07:31:27;67.27;;;42.17;;
7306;SDS011;3694;48.732;9.248;2023-02-15T07:33:53;75.63;;;43.60;;
7306;SDS011;3694;48.732;9.248;2023-02-15T07:36:18;68.20;;;42.57;;
7306;SDS011;3694;48.732;9.248;2023-02-15T07:38:44;76.23;;;42.77;;
7306;SDS011;3694;48.732;9.248;2023-02-15T07:41:12;75.87;;;44.30;;
7306;SDS011;3694;48.732;9.248;2023-02-15T07:43:39;74.30;;;45.40;;
7306;SDS011;3694;48.732;9.248;2023-02-15T07:46:07;90.93;;;48.30;;
7306;SDS011;3694;48.732;9.248;2023-02-15T07:48:35;116.37;;;55.77;;
7306;SDS011;3694;48.732;9.248;2023-02-15T07:51:01;127.47;;;69.73;;
7306;SDS011;3694;48.732;9.248;2023-02-15T07:53:28;132.20;;;74.90;;
7306;SDS011;3694;48.732;9.248;2023-02-15T07:55:58;132.53;;;73.90;;
7306;SDS011;3694;48.732;9.248;2023-02-15T07:58:31;119.67;;;67.13;;
7306;SDS011;3694;48.732;9.248;2023-02-15T08:01:16;105.63;;;60.13;;
7306;SDS011;3694;48.732;9.248;2023-02-15T08:03:42;92.97;;;55.77;;
7306;SDS011;3694;48.732;9.248;2023-02-15T08:06:09;75.33;;;48.90;;
7306;SDS011;3694;48.732;9.248;2023-02-15T08:08:36;79.83;;;48.07;;
7306;SDS011;3694;48.732;9.248;2023-02-15T08:14:13;75.07;;;49.47;;
7306;SDS011;3694;48.732;9.248;2023-02-15T08:16:43;72.83;;;47.07;;
7306;SDS011;3694;48.732;9.248;2023-02-15T08:19:20;66.37;;;43.87;;
7306;SDS011;3694;48.732;9.248;2023-02-15T08:21:57;58.10;;;38.07;;
7306;SDS011;3694;48.732;9.248;2023-02-15T08:24:30;56.63;;;37.83;;
7306;SDS011;3694;48.732;9.248;2023-02-15T08:26:57;50.93;;;32.50;;
7306;SDS011;3694;48.732;9.248;2023-02-15T08:29:24;47.57;;;32.03;;
7306;SDS011;3694;48.732;9.248;2023-02-15T08:31:55;41.33;;;29.70;;
7306;SDS011;3694;48.732;9.248;2023-02-15T08:34:30;41.07;;;29.03;;
7306;SDS011;3694;48.732;9.248;2023-02-15T08:36:57;42.03;;;29.37;;
7306;SDS011;3694;48.732;9.248;2023-02-15T08:39:22;38.43;;;27.47;;
7306;SDS011;3694;48.732;9.248;2023-02-15T08:41:48;40.90;;;30.00;;
7306;SDS011;3694;48.732;9.248;2023-02-15T08:44:15;38.40;;;27.27;;
7306;SDS011;3694;48.732;9.248;2023-02-15T08:46:42;37.47;;;27.37;;
7306;SDS011;3694;48.732;9.248;2023-02-15T08:49:09;36.03;;;27.33;;
7306;SDS011;3694;48.732;9.248;2023-02-15T08:51:38;37.23;;;26.30;;
7306;SDS011;3694;48.732;9.248;2023-02-15T08:54:05;36.03;;;27.10;;
7306;SDS011;3694;48.732;9.248;2023-02-15T08:56:34;35.33;;;26.87;;
7306;SDS011;3694;48.732;9.248;2023-02-15T08:59:05;39.67;;;28.43;;
7306;SDS011;3694;48.732;9.248;2023-02-15T09:01:33;33.67;;;25.43;;
7306;SDS011;3694;48.732;9.248;2023-02-15T09:04:03;31.93;;;25.00;;
7306;SDS011;3694;48.732;9.248;2023-02-15T09:06:31;33.43;;;25.60;;
7306;SDS011;3694;48.732;9.248;2023-02-15T09:08:57;32.57;;;23.77;;
7306;SDS011;3694;48.732;9.248;2023-02-15T09:11:24;32.03;;;24.87;;
7306;SDS011;3694;48.732;9.248;2023-02-15T09:13:55;32.93;;;25.03;;
7306;SDS011;3694;48.732;9.248;2023-02-15T09:16:26;32.40;;;24.37;;
7306;SDS011;3694;48.732;9.248;2023-02-15T09:18:53;32.23;;;23.93;;
7306;SDS011;3694;48.732;9.248;2023-02-15T09:21:21;33.10;;;22.80;;
7306;SDS011;3694;48.732;9.248;2023-02-15T09:23:48;28.43;;;23.00;;
7306;SDS011;3694;48.732;9.248;2023-02-15T09:26:15;28.57;;;22.30;;
7306;SDS011;3694;48.732;9.248;2023-02-15T09:28:45;29.93;;;22.40;;
7306;SDS011;3694;48.732;9.248;2023-02-15T09:31:14;30.17;;;23.40;;
7306;SDS011;3694;48.732;9.248;2023-02-15T09:33:42;24.97;;;20.90;;
7306;SDS011;3694;48.732;9.248;2023-02-15T09:36:16;26.50;;;21.07;;
7306;SDS011;3694;48.732;9.248;2023-02-15T09:38:42;28.03;;;22.07;;
7306;SDS011;3694;48.732;9.248;2023-02-15T09:48:51;24.20;;;19.67;;
7306;SDS011;3694;48.732;9.248;2023-02-15T09:51:26;22.73;;;19.70;;
7306;SDS011;3694;48.732;9.248;2023-02-15T09:56:36;23.93;;;19.60;;
7306;SDS011;3694;48.732;9.248;2023-02-15T10:02:05;25.43;;;19.53;;
7306;SDS011;3694;48.732;9.248;2023-02-15T10:07:56;26.37;;;20.83;;
7306;SDS011;3694;48.732;9.248;2023-02-15T10:10:50;24.30;;;19.90;;
7306;SDS011;3694;48.732;9.248;2023-02-15T10:16:02;22.57;;;19.20;;
7306;SDS011;3694;48.732;9.248;2023-02-15T10:21:11;24.03;;;19.00;;
7306;SDS011;3694;48.732;9.248;2023-02-15T10:26:40;22.80;;;17.50;;
7306;SDS011;3694;48.732;9.248;2023-02-15T10:29:16;19.83;;;17.27;;
7306;SDS011;3694;48.732;9.248;2023-02-15T10:34:20;20.07;;;15.07;;
7306;SDS011;3694;48.732;9.248;2023-02-15T10:42:23;15.33;;;13.53;;
7306;SDS011;3694;48.732;9.248;2023-02-15T10:45:21;17.07;;;13.93;;
7306;SDS011;3694;48.732;9.248;2023-02-15T10:50:20;16.63;;;11.90;;
7306;SDS011;3694;48.732;9.248;2023-02-15T11:01:18;13.07;;;11.37;;
7306;SDS011;3694;48.732;9.248;2023-02-15T11:04:08;12.93;;;10.97;;
7306;SDS011;3694;48.732;9.248;2023-02-15T11:06:59;11.07;;;9.60;;
7306;SDS011;3694;48.732;9.248;2023-02-15T11:09:37;12.57;;;10.73;;
7306;SDS011;3694;48.732;9.248;2023-02-15T11:12:11;14.03;;;10.60;;
7306;SDS011;3694;48.732;9.248;2023-02-15T11:14:52;12.50;;;9.27;;
7306;SDS011;3694;48.732;9.248;2023-02-15T11:17:22;13.27;;;10.07;;
7306;SDS011;3694;48.732;9.248;2023-02-15T11:20:41;11.80;;;10.00;;
7306;SDS011;3694;48.732;9.248;2023-02-15T11:22:42;10.80;;;9.70;;
7306;SDS011;3694;48.732;9.248;2023-02-15T11:25:16;10.67;;;8.70;;
7306;SDS011;3694;48.732;9.248;2023-02-15T11:27:45;10.40;;;9.07;;
7306;SDS011;3694;48.732;9.248;2023-02-15T11:30:13;12.83;;;9.63;;
7306;SDS011;3694;48.732;9.248;2023-02-15T11:32:40;12.40;;;10.30;;
7306;SDS011;3694;48.732;9.248;2023-02-15T11:37:51;12.00;;;10.23;;
7306;SDS011;3694;48.732;9.248;2023-02-15T11:40:36;11.27;;;9.97;;
7306;SDS011;3694;48.732;9.248;2023-02-15T11:43:13;13.23;;;9.87;;
7306;SDS011;3694;48.732;9.248;2023-02-15T11:46:06;14.60;;;12.73;;
7306;SDS011;3694;48.732;9.248;2023-02-15T11:48:35;17.43;;;12.97;;
7306;SDS011;3694;48.732;9.248;2023-02-15T11:51:01;15.67;;;13.43;;
7306;SDS011;3694;48.732;9.248;2023-02-15T11:53:28;16.63;;;13.63;;
7306;SDS011;3694;48.732;9.248;2023-02-15T11:55:58;17.90;;;13.23;;
7306;SDS011;3694;48.732;9.248;2023-02-15T11:58:29;15.07;;;13.03;;
7306;SDS011;3694;48.732;9.248;2023-02-15T12:01:08;16.60;;;13.80;;
7306;SDS011;3694;48.732;9.248;2023-02-15T12:03:48;15.63;;;13.17;;
7306;SDS011;3694;48.732;9.248;2023-02-15T12:06:23;15.60;;;13.47;;
7306;SDS011;3694;48.732;9.248;2023-02-15T12:11:51;17.50;;;13.77;;
7306;SDS011;3694;48.732;9.248;2023-02-15T12:14:16;16.83;;;14.23;;
7306;SDS011;3694;48.732;9.248;2023-02-15T12:16:46;25.67;;;15.40;;
7306;SDS011;3694;48.732;9.248;2023-02-15T12:19:27;23.40;;;16.97;;
7306;SDS011;3694;48.732;9.248;2023-02-15T12:21:54;19.43;;;16.10;;
7306;SDS011;3694;48.732;9.248;2023-02-15T12:24:36;21.97;;;16.70;;
7306;SDS011;3694;48.732;9.248;2023-02-15T12:29:43;21.03;;;15.93;;
7306;SDS011;3694;48.732;9.248;2023-02-15T12:32:18;18.37;;;15.87;;
7306;SDS011;3694;48.732;9.248;2023-02-15T12:34:47;18.93;;;15.73;;
7306;SDS011;3694;48.732;9.248;2023-02-15T12:37:17;20.67;;;15.97;;
7306;SDS011;3694;48.732;9.248;2023-02-15T12:39:50;19.73;;;15.87;;
7306;SDS011;3694;48.732;9.248;2023-02-15T12:42:28;18.63;;;15.10;;
7306;SDS011;3694;48.732;9.248;2023-02-15T12:50:46;21.37;;;15.73;;
7306;SDS011;3694;48.732;9.248;2023-02-15T12:53:15;18.87;;;14.77;;
7306;SDS011;3694;48.732;9.248;2023-02-15T12:55:56;17.23;;;14.00;;
7306;SDS011;3694;48.732;9.248;2023-02-15T12:58:23;19.80;;;14.37;;
7306;SDS011;3694;48.732;9.248;2023-02-15T13:03:37;19.17;;;14.40;;
7306;SDS011;3694;48.732;9.248;2023-02-15T13:06:16;15.10;;;13.27;;
7306;SDS011;3694;48.732;9.248;2023-02-15T13:08:46;17.00;;;14.07;;
7306;SDS011;3694;48.732;9.248;2023-02-15T13:11:19;15.70;;;13.73;;
7306;SDS011;3694;48.732;9.248;2023-02-15T13:13:58;19.70;;;13.97;;
7306;SDS011;3694;48.732;9.248;2023-02-15T13:16:32;17.63;;;15.47;;
7306;SDS011;3694;48.732;9.248;2023-02-15T13:19:04;17.07;;;13.93;;
7306;SDS011;3694;48.732;9.248;2023-02-15T13:21:44;18.20;;;14.70;;
7306;SDS011;3694;48.732;9.248;2023-02-15T13:24:22;17.10;;;14.13;;
7306;SDS011;3694;48.732;9.248;2023-02-15T13:27:02;17.17;;;12.90;;
7306;SDS011;3694;48.732;9.248;2023-02-15T13:29:30;17.43;;;13.90;;
7306;SDS011;3694;48.732;9.248;2023-02-15T13:32:02;14.83;;;12.83;;
7306;SDS011;3694;48.732;9.248;2023-02-15T13:34:37;17.87;;;13.90;;
7306;SDS011;3694;48.732;9.248;2023-02-15T13:37:19;15.67;;;13.97;;
7306;SDS011;3694;48.732;9.248;2023-02-15T13:39:49;19.43;;;14.37;;
7306;SDS011;3694;48.732;9.248;2023-02-15T13:42:36;18.37;;;15.00;;
7306;SDS011;3694;48.732;9.248;2023-02-15T13:51:27;17.43;;;13.93;;
7306;SDS011;3694;48.732;9.248;2023-02-15T13:56:02;16.87;;;14.40;;
7306;SDS011;3694;48.732;9.248;2023-02-15T13:59:01;17.43;;;14.40;;
7306;SDS011;3694;48.732;9.248;2023-02-15T14:04:18;23.43;;;14.90;;
7306;SDS011;3694;48.732;9.248;2023-02-15T14:07:28;19.10;;;15.63;;
7306;SDS011;3694;48.732;9.248;2023-02-15T14:18:28;22.13;;;15.77;;
7306;SDS011;3694;48.732;9.248;2023-02-15T14:21:09;18.13;;;15.30;;
7306;SDS011;3694;48.732;9.248;2023-02-15T14:29:19;19.30;;;15.40;;
7306;SDS011;3694;48.732;9.248;2023-02-15T14:31:54;19.03;;;14.30;;
7306;SDS011;3694;48.732;9.248;2023-02-15T14:34:24;20.27;;;13.60;;
7306;SDS011;3694;48.732;9.248;2023-02-15T14:36:56;16.77;;;13.00;;
7306;SDS011;3694;48.732;9.248;2023-02-15T14:39:31;13.87;;;11.67;;
7306;SDS011;3694;48.732;9.248;2023-02-15T14:42:45;14.87;;;12.60;;
7306;SDS011;3694;48.732;9.248;2023-02-15T14:45:22;15.17;;;12.83;;
7306;SDS011;3694;48.732;9.248;2023-02-15T14:48:20;15.07;;;13.07;;
7306;SDS011;3694;48.732;9.248;2023-02-15T14:50:58;17.10;;;13.03;;
7306;SDS011;3694;48.732;9.248;2023-02-15T14:53:34;18.50;;;14.93;;
7306;SDS011;3694;48.732;9.248;2023-02-15T14:56:13;18.77;;;14.13;;
7306;SDS011;3694;48.732;9.248;2023-02-15T15:01:17;17.70;;;14.93;;
7306;SDS011;3694;48.732;9.248;2023-02-15T15:04:11;19.03;;;15.20;;
7306;SDS011;3694;48.732;9.248;2023-02-15T15:06:56;18.00;;;15.33;;
7306;SDS011;3694;48.732;9.248;2023-02-15T15:09:43;19.60;;;15.17;;
7306;SDS011;3694;48.732;9.248;2023-02-15T15:12:14;17.83;;;14.57;;
7306;SDS011;3694;48.732;9.248;2023-02-15T15:14:42;17.40;;;15.27;;
7306;SDS011;3694;48.732;9.248;2023-02-15T15:17:13;19.27;;;16.17;;
7306;SDS011;3694;48.732;9.248;2023-02-15T15:22:39;19.00;;;15.67;;
7306;SDS011;3694;48.732;9.248;2023-02-15T15:25:11;21.40;;;15.60;;
7306;SDS011;3694;48.732;9.248;2023-02-15T15:27:51;22.60;;;15.50;;
7306;SDS011;3694;48.732;9.248;2023-02-15T15:47:16;17.37;;;15.30;;
7306;SDS011;3694;48.732;9.248;2023-02-15T15:49:59;21.93;;;15.70;;
7306;SDS011;3694;48.732;9.248;2023-02-15T15:52:26;19.10;;;14.93;;
7306;SDS011;3694;48.732;9.248;2023-02-15T15:54:57;20.20;;;16.67;;
7306;SDS011;3694;48.732;9.248;2023-02-15T15:57:29;19.87;;;16.40;;
7306;SDS011;3694;48.732;9.248;2023-02-15T16:00:00;22.13;;;18.23;;
7306;SDS011;3694;48.732;9.248;2023-02-15T16:02:26;20.73;;;17.40;;
7306;SDS011;3694;48.732;9.248;2023-02-15T16:04:52;22.37;;;16.80;;
7306;SDS011;3694;48.732;9.248;2023-02-15T16:09:54;21.33;;;17.23;;
7306;SDS011;3694;48.732;9.248;2023-02-15T16:12:45;20.37;;;17.53;;
7306;SDS011;3694;48.732;9.248;2023-02-15T16:15:20;22.03;;;17.83;;
7306;SDS011;3694;48.732;9.248;2023-02-15T16:17:58;20.53;;;17.07;;
7306;SDS011;3694;48.732;9.248;2023-02-15T16:20:32;19.17;;;16.67;;
7306;SDS011;3694;48.732;9.248;2023-02-15T16:26:21;22.30;;;17.43;;
7306;SDS011;3694;48.732;9.248;2023-02-15T16:29:00;22.30;;;16.90;;
7306;SDS011;3694;48.732;9.248;2023-02-15T16:31:26;22.07;;;18.10;;
7306;SDS011;3694;48.732;9.248;2023-02-15T16:33:53;25.33;;;17.73;;
7306;SDS011;3694;48.732;9.248;2023-02-15T16:41:21;26.83;;;19.57;;
7306;SDS011;3694;48.732;9.248;2023-02-15T16:43:52;25.80;;;20.20;;
7306;SDS011;3694;48.732;9.248;2023-02-15T16:46:25;25.07;;;19.63;;
7306;SDS011;3694;48.732;9.248;2023-02-15T16:48:57;26.33;;;19.30;;
7306;SDS011;3694;48.732;9.248;2023-02-15T16:51:27;27.17;;;20.03;;
7306;SDS011;3694;48.732;9.248;2023-02-15T16:53:55;25.27;;;18.73;;
7306;SDS011;3694;48.732;9.248;2023-02-15T16:56:30;23.00;;;18.03;;
7306;SDS011;3694;48.732;9.248;2023-02-15T16:58:57;27.83;;;18.70;;
7306;SDS011;3694;48.732;9.248;2023-02-15T17:01:24;21.83;;;17.37;;
7306;SDS011;3694;48.732;9.248;2023-02-15T17:07:15;24.90;;;17.07;;
7306;SDS011;3694;48.732;9.248;2023-02-15T17:09:53;22.87;;;17.03;;
7306;SDS011;3694;48.732;9.248;2023-02-15T17:15:29;21.17;;;15.93;;
7306;SDS011;3694;48.732;9.248;2023-02-15T17:18:03;22.17;;;16.07;;
7306;SDS011;3694;48.732;9.248;2023-02-15T17:20:39;24.00;;;14.97;;
7306;SDS011;3694;48.732;9.248;2023-02-15T17:23:07;19.87;;;14.80;;
7306;SDS011;3694;48.732;9.248;2023-02-15T17:25:47;21.50;;;15.37;;
7306;SDS011;3694;48.732;9.248;2023-02-15T17:28:17;21.27;;;14.43;;
7306;SDS011;3694;48.732;9.248;2023-02-15T17:30:45;21.30;;;14.87;;
7306;SDS011;3694;48.732;9.248;2023-02-15T17:33:22;20.50;;;15.53;;
7306;SDS011;3694;48.732;9.248;2023-02-15T17:36:04;23.20;;;15.07;;
7306;SDS011;3694;48.732;9.248;2023-02-15T17:38:34;20.10;;;15.63;;
7306;SDS011;3694;48.732;9.248;2023-02-15T17:41:00;19.87;;;16.00;;
7306;SDS011;3694;48.732;9.248;2023-02-15T17:43:25;22.57;;;17.73;;
7306;SDS011;3694;48.732;9.248;2023-02-15T17:45:51;21.97;;;17.27;;
7306;SDS011;3694;48.732;9.248;2023-02-15T17:48:22;25.60;;;17.47;;